Portada
METAR-TAF:

METAR-TAF

Aeropuertos :

Pekín, China

Aeropuerto Internacional de Pekín-Capital

latitud: 39-56N, longitud: 116-17E, altitud: 55 m

Observación

El informe se hizo hace 37 minutos, a las 08:00 UTC
Viento 12 kt del sur-sureste, variando entre este-sureste y sur
Temperatura 34°C
Humedad 36%
Presión 1004 hPa
Visibilidad 10 km o más
sin nubes por debajo de 1500 m y sin presencia de cumulonimbus.

METAR: ZBAA 280800Z 15006MPS 120V180 CAVOK 34/17 Q1004 NOSIG

Hora: 16:37 (08:37 UTC)

Pronóstico

El informe se hizo hace 47 minutos, a las 07:50 UTC
Pronóstico válido del 28 a las 06 UTC al 29 a las 06 UTC
Viento 8 kt del sur-sureste
Visibilidad 10 km o más
sin nubes por debajo de 1500 m y sin presencia de cumulonimbus.
Temporalmente
del 28 a las 11 UTC al 28 a las 14 UTC
Escasas nubes a una altura de 4000 ft, Cumulonimbus.
tormenta, lluvia ligera

TAF: ZBAA 280750Z 2806/2906 16004MPS CAVOK TX35/2807Z TN18/2821Z TEMPO 2811/2814 -TSRA FEW040CB

Observaciones y pronósticos meteorológicos de más de 4000 aeropuertos (mensajes METAR y TAF).

Los puntos amarillos y rojos representan las estaciones disponibles.

Ponga el ratón en el punto deseado para ver el nombre de la estación.

Haga clic para ver las observaciones y los pronósticos meteorológicos.

Para cambiar el mapa : haga clic en los botones verdes con una cruz de color negro para hacer un zoom, en el botón verde con un guión para alejar o en las flechas verdes para mapas adyacentes.


METAR-TAF: